Wildrose, North Dakota
Current Conditions -  °F | °C
As of 10:35 PM on Saturday 22 Nov 2014 (Local Time) from KD60 Reporting Station
Scattered Clouds Scattered Clouds  
Wind Chill: -3°   Ceiling: Unl
Heat Index:   Visibility: 10mi
Dew Point:   Wind: 20mph
Humidity: 81%   Direction: 240°WSW
Pressure: 29.29"   Gusts: 23mph
Location:  48.63°N, 103.18°W
Report Text: KD60 230435Z AUTO 24017G20KT 10SM SCT110 03/00 A2929 RMK AO2
Loading
Personal Weather Stations






























Interactive Weather Map New forecast layout! Learn more

10-Day Weather Forecast

Advertisements
Track Severe Weather on mobile